Time;durP1;ratioP1;P1;durP2;ratioP2;P2;SDS_P1;SDS_P2;PMS_P1;PMS_P2;Temp;Humidity;BMP_temperature;BMP_pressure;BME280_temperature;BME280_humidity;BME280_pressure;Samples;Min_cycle;Max_cycle;Signal;HPM_P1;HPM_P2
2021/11/02 00:01:16;;;;;;;22.47;19.97;;;12.90;99.90;;;;;;6249544;28;20985;-65
2021/11/02 00:04:19;;;;;;;26.97;23.07;;;12.90;99.90;;;;;;6240330;28;20822;-64
2021/11/02 00:07:22;;;;;;;22.20;19.90;;;12.90;99.90;;;;;;6248615;28;20946;-65
2021/11/02 00:10:28;;;;;;;23.50;21.10;;;12.90;99.90;;;;;;6248705;28;20475;-66
2021/11/02 00:13:46;;;;;;;24.27;21.87;;;12.90;99.90;;;;;;6249900;28;20471;-65
2021/11/02 00:16:55;;;;;;;23.17;20.80;;;12.90;99.90;;;;;;6248466;28;20788;-66
2021/11/02 00:20:02;;;;;;;22.77;20.43;;;12.80;99.90;;;;;;6248205;28;20479;-65
2021/11/02 00:23:07;;;;;;;24.20;21.80;;;12.90;99.90;;;;;;6246193;28;20475;-66
2021/11/02 00:26:14;;;;;;;22.60;20.20;;;12.80;99.90;;;;;;6247991;28;20479;-65
2021/11/02 00:29:17;;;;;;;23.40;21.10;;;12.80;99.90;;;;;;6245283;28;20479;-66
2021/11/02 00:32:20;;;;;;;21.73;19.53;;;12.70;99.90;;;;;;6247486;28;20471;-66
2021/11/02 00:35:25;;;;;;;24.33;21.93;;;12.70;99.90;;;;;;6247503;28;20970;-66
2021/11/02 00:38:28;;;;;;;23.33;20.97;;;12.70;99.90;;;;;;6247922;28;20495;-66
2021/11/02 00:41:32;;;;;;;24.70;22.30;;;12.60;99.90;;;;;;6248736;28;20479;-66
2021/11/02 00:44:36;;;;;;;24.07;21.57;;;12.60;99.90;;;;;;6248918;28;20953;-65
2021/11/02 00:47:40;;;;;;;24.87;22.30;;;12.60;99.90;;;;;;6250167;28;20479;-65
2021/11/02 00:50:46;;;;;;;24.00;21.60;;;12.60;99.90;;;;;;6249198;28;20992;-65
2021/11/02 00:53:49;;;;;;;24.47;22.07;;;12.60;99.90;;;;;;6250307;28;20470;-66
2021/11/02 00:56:53;;;;;;;23.37;21.17;;;12.70;99.90;;;;;;6250018;28;20892;-65
2021/11/02 00:59:56;;;;;;;25.17;22.60;;;12.70;99.90;;;;;;6250099;28;20470;-65
2021/11/02 01:03:00;;;;;;;24.80;22.40;;;12.70;99.90;;;;;;6250798;28;20450;-65
2021/11/02 01:06:03;;;;;;;27.03;24.27;;;12.60;99.90;;;;;;6249746;28;20486;-65
2021/11/02 01:09:08;;;;;;;25.40;22.90;;;12.60;99.90;;;;;;6249716;28;20816;-65
2021/11/02 01:12:13;;;;;;;24.43;22.03;;;12.50;99.90;;;;;;6249483;28;21031;-65
2021/11/02 01:15:18;;;;;;;20.27;18.07;;;12.50;99.90;;;;;;6249878;28;20467;-65
2021/11/02 01:18:22;;;;;;;18.80;16.80;;;12.50;99.90;;;;;;6249545;28;20470;-66
2021/11/02 01:21:25;;;;;;;16.20;14.60;;;12.40;99.90;;;;;;6249427;28;20958;-65
2021/11/02 01:24:28;;;;;;;14.97;13.67;;;12.40;99.90;;;;;;6249893;28;20479;-65
2021/11/02 01:27:33;;;;;;;14.23;12.90;;;12.30;99.90;;;;;;6249411;28;20994;-65
2021/11/02 01:30:36;;;;;;;13.33;11.97;;;12.30;99.90;;;;;;6249442;28;20471;-64
2021/11/02 01:33:40;;;;;;;13.17;11.80;;;12.20;99.90;;;;;;6249712;28;21217;-63
2021/11/02 01:36:43;;;;;;;12.30;10.20;;;12.10;99.90;;;;;;6249201;28;20989;-64
2021/11/02 01:39:46;;;;;;;11.37;9.53;;;12.20;99.90;;;;;;6249642;28;20549;-64
2021/11/02 01:42:51;;;;;;;10.87;9.77;;;12.10;99.90;;;;;;6249602;28;20486;-63
2021/11/02 01:45:54;;;;;;;10.70;9.60;;;12.10;99.90;;;;;;6249458;28;20858;-63
2021/11/02 01:48:59;;;;;;;11.50;9.57;;;12.10;99.90;;;;;;6249768;28;20470;-64
2021/11/02 01:52:03;;;;;;;9.83;8.97;;;12.10;99.90;;;;;;6249247;28;20486;-64
2021/11/02 01:55:09;;;;;;;10.83;9.80;;;12.20;99.90;;;;;;6249472;28;20475;-64
2021/11/02 01:58:15;;;;;;;9.67;8.77;;;12.30;99.90;;;;;;6249578;28;20486;-64
2021/11/02 02:01:31;;;;;;;10.50;9.50;;;12.30;99.90;;;;;;6254220;28;20470;-64
2021/11/02 02:04:53;;;;;;;11.57;10.47;;;12.30;99.90;;;;;;6253449;28;20496;-64
2021/11/02 02:08:05;;;;;;;11.97;10.87;;;12.30;99.90;;;;;;6253469;28;20463;-64
2021/11/02 02:11:18;;;;;;;11.27;10.10;;;12.30;99.90;;;;;;6245422;28;20475;-64
2021/11/02 02:14:29;;;;;;;10.27;8.90;;;12.40;99.90;;;;;;6253738;28;20474;-64
2021/11/02 02:17:37;;;;;;;10.50;9.40;;;12.40;99.90;;;;;;6253847;28;20471;-64
2021/11/02 02:20:58;;;;;;;10.73;9.70;;;12.40;99.90;;;;;;6253444;28;20490;-64
2021/11/02 02:24:34;;;;;;;11.17;10.17;;;12.40;99.90;;;;;;6253486;28;20447;-65
2021/11/02 02:27:44;;;;;;;13.60;10.60;;;12.40;99.90;;;;;;6241725;28;20467;-64
2021/11/02 02:30:53;;;;;;;10.20;9.30;;;12.40;99.90;;;;;;6253271;28;20471;-64
2021/11/02 02:33:57;;;;;;;9.07;8.37;;;12.40;99.90;;;;;;6253753;28;20479;-65
2021/11/02 02:37:02;;;;;;;9.60;8.70;;;12.30;99.90;;;;;;6253258;28;20471;-64
2021/11/02 02:40:07;;;;;;;9.47;8.57;;;12.30;99.90;;;;;;6252700;28;20478;-64
2021/11/02 02:43:10;;;;;;;8.37;7.57;;;12.40;99.90;;;;;;6252842;28;20471;-64
2021/11/02 02:46:16;;;;;;;8.03;7.23;;;12.50;99.90;;;;;;6252919;28;20497;-64
2021/11/02 02:49:21;;;;;;;8.23;7.63;;;12.40;99.90;;;;;;6252531;28;20471;-64
2021/11/02 02:52:27;;;;;;;6.67;6.03;;;12.40;99.90;;;;;;6252174;28;20820;-64
2021/11/02 02:55:32;;;;;;;6.27;5.73;;;12.40;99.90;;;;;;6252731;28;20842;-64
2021/11/02 02:58:36;;;;;;;4.10;3.80;;;12.30;99.90;;;;;;6252812;28;20483;-63
2021/11/02 03:01:41;;;;;;;3.70;3.30;;;12.30;99.90;;;;;;6252836;28;20467;-64
2021/11/02 03:04:47;;;;;;;2.17;2.07;;;12.20;99.90;;;;;;6252435;28;20463;-64
2021/11/02 03:07:54;;;;;;;1.20;1.10;;;12.10;99.90;;;;;;6252924;28;20478;-65
2021/11/02 03:10:58;;;;;;;1.70;1.60;;;12.10;99.90;;;;;;6252207;28;20463;-65
2021/11/02 03:14:06;;;;;;;1.40;1.10;;;12.00;99.90;;;;;;6247351;28;20854;-65
2021/11/02 03:17:13;;;;;;;1.17;0.87;;;11.90;99.90;;;;;;6252021;28;20471;-65
2021/11/02 03:44:15;;;;;;;0.70;0.60;;;11.20;99.90;;;;;;6251436;28;20866;-66
2021/11/02 03:51:08;;;;;;;0.60;0.47;;;11.10;99.90;;;;;;6250832;28;20471;-64
2021/11/02 03:57:43;;;;;;;0.70;0.70;;;10.90;99.90;;;;;;6251782;28;20470;-64
2021/11/02 04:01:13;;;;;;;0.70;0.50;;;10.90;99.90;;;;;;6250845;28;20479;-64
2021/11/02 05:09:11;;;;;;;1.00;0.57;;;11.10;99.90;;;;;;6250027;28;20510;-64
2021/11/02 05:49:39;;;;;;;0.80;0.70;;;11.20;99.90;;;;;;6254591;28;20474;-65
2021/11/02 05:56:09;;;;;;;0.67;0.67;;;11.10;99.90;;;;;;6253986;28;20471;-65
2021/11/02 05:59:24;;;;;;;0.90;0.90;;;11.10;99.90;;;;;;6253826;28;20485;-66
2021/11/02 06:06:05;;;;;;;0.93;0.70;;;11.20;99.90;;;;;;6215937;28;20950;-66
2021/11/02 06:09:16;;;;;;;1.40;1.30;;;11.20;99.90;;;;;;6253443;28;20498;-65
2021/11/02 06:29:18;;;;;;;2.07;1.37;;;11.00;99.90;;;;;;6253345;28;20499;-63
2021/11/02 06:32:27;;;;;;;1.63;1.17;;;11.00;99.90;;;;;;6252934;28;20478;-65
2021/11/02 06:35:33;;;;;;;1.20;1.10;;;11.10;99.90;;;;;;6252853;28;20478;-64
2021/11/02 06:45:41;;;;;;;1.90;0.90;;;11.20;99.90;;;;;;6252731;28;20470;-65
2021/11/02 06:48:57;;;;;;;1.00;0.90;;;11.20;99.90;;;;;;6252980;28;20513;-65
2021/11/02 06:52:22;;;;;;;1.80;1.23;;;11.20;99.90;;;;;;6252510;28;20964;-64
2021/11/02 06:59:18;;;;;;;1.93;1.00;;;11.30;99.90;;;;;;6252360;28;20975;-65
2021/11/02 07:16:36;;;;;;;1.23;1.13;;;11.30;99.90;;;;;;6250309;28;20805;-66
2021/11/02 07:19:43;;;;;;;1.70;1.50;;;11.30;99.90;;;;;;6250362;28;20998;-64
2021/11/02 07:22:54;;;;;;;2.20;1.70;;;11.40;99.90;;;;;;6250252;28;20593;-64
2021/11/02 07:26:13;;;;;;;2.17;1.97;;;11.50;99.90;;;;;;6250018;28;20475;-65
2021/11/02 08:47:46;;;;;;;4.97;4.17;;;11.20;99.90;;;;;;6248033;28;20475;-65
2021/11/02 08:50:52;;;;;;;5.93;3.30;;;11.20;99.90;;;;;;6249319;28;20479;-64
2021/11/02 08:53:57;;;;;;;4.73;3.87;;;11.30;99.90;;;;;;6235713;28;20483;-64
2021/11/02 08:57:01;;;;;;;3.53;3.23;;;11.20;99.90;;;;;;6238127;28;20443;-67
2021/11/02 09:00:06;;;;;;;4.10;3.40;;;11.30;99.90;;;;;;6244425;28;20471;-67
2021/11/02 09:03:16;;;;;;;4.30;3.47;;;11.40;99.90;;;;;;6225975;28;20456;-66
2021/11/02 09:06:22;;;;;;;4.33;3.43;;;11.50;99.90;;;;;;6224505;28;20931;-66
2021/11/02 09:09:31;;;;;;;4.00;3.60;;;11.50;99.90;;;;;;6237929;28;20475;-66
2021/11/02 09:12:35;;;;;;;3.30;3.00;;;11.60;99.90;;;;;;6254806;28;20524;-65
2021/11/02 09:15:39;;;;;;;3.43;3.13;;;11.70;99.90;;;;;;6235522;28;20475;-65
2021/11/02 09:18:43;;;;;;;7.33;3.57;;;11.70;99.90;;;;;;6230560;28;20482;-64
2021/11/02 09:21:48;;;;;;;3.50;3.07;;;11.70;99.90;;;;;;6230876;28;20987;-65
2021/11/02 09:24:53;;;;;;;3.03;2.83;;;11.80;99.90;;;;;;6231173;28;20483;-65
2021/11/02 09:27:56;;;;;;;3.97;3.67;;;11.80;99.90;;;;;;6250178;28;20475;-65
2021/11/02 09:31:00;;;;;;;4.00;3.30;;;11.80;99.90;;;;;;6254869;28;20477;-66
2021/11/02 09:34:03;;;;;;;3.70;3.10;;;11.90;99.90;;;;;;6242071;28;20479;-65
2021/11/02 09:37:15;;;;;;;2.90;2.60;;;11.90;99.90;;;;;;6245178;28;20478;-67
2021/11/02 09:40:44;;;;;;;2.30;2.10;;;11.90;99.90;;;;;;6253981;28;20486;-65
2021/11/02 09:44:29;;;;;;;2.30;1.87;;;11.90;99.90;;;;;;6251565;28;20471;-65
2021/11/02 09:48:11;;;;;;;2.10;2.00;;;11.80;99.90;;;;;;6251818;28;20463;-66
2021/11/02 09:51:51;;;;;;;2.40;1.90;;;11.80;99.90;;;;;;6253272;28;20481;-68
2021/11/02 09:55:34;;;;;;;1.73;1.43;;;11.70;99.90;;;;;;6229167;28;20976;-65
2021/11/02 09:59:10;;;;;;;3.83;1.70;;;11.80;99.90;;;;;;6228092;28;20468;-66
2021/11/02 10:02:46;;;;;;;2.23;1.30;;;11.80;99.90;;;;;;6237972;28;20462;-65
2021/11/02 10:06:15;;;;;;;2.57;2.33;;;11.80;99.90;;;;;;6252313;28;20477;-67
2021/11/02 10:09:30;;;;;;;1.43;1.33;;;11.90;99.90;;;;;;6252066;28;20776;-66
2021/11/02 10:12:51;;;;;;;1.30;1.20;;;12.00;99.90;;;;;;6253251;28;20911;-67
2021/11/02 10:16:05;;;;;;;2.07;1.60;;;12.20;99.90;;;;;;6252759;28;20482;-66
2021/11/02 10:19:36;;;;;;;2.40;1.40;;;12.40;99.90;;;;;;6251175;28;20909;-65
2021/11/02 10:23:10;;;;;;;2.77;1.87;;;12.70;99.90;;;;;;6241055;28;20463;-66
2021/11/02 10:26:26;;;;;;;1.70;1.47;;;13.80;99.90;;;;;;6252606;28;20807;-67
2021/11/02 10:30:04;;;;;;;1.67;1.40;;;16.70;99.90;;;;;;6252989;28;20483;-66
2021/11/02 10:33:19;;;;;;;1.50;1.00;;;18.40;93.40;;;;;;6251922;28;20899;-66
2021/11/02 10:36:35;;;;;;;2.20;1.60;;;18.80;90.90;;;;;;6251345;28;20467;-65
2021/11/02 10:39:57;;;;;;;1.80;1.40;;;18.40;90.10;;;;;;6248826;28;20486;-65
2021/11/02 10:43:30;;;;;;;2.20;1.13;;;17.80;89.00;;;;;;6226953;28;20811;-67
2021/11/02 10:46:37;;;;;;;1.40;1.30;;;16.80;89.50;;;;;;6227108;28;20476;-67
2021/11/02 10:50:00;;;;;;;1.83;1.23;;;16.10;91.80;;;;;;6227794;28;20484;-67
2021/11/02 10:53:04;;;;;;;2.23;1.77;;;16.00;93.00;;;;;;6235173;28;20514;-65
2021/11/02 10:56:17;;;;;;;1.90;1.73;;;15.90;92.30;;;;;;6251269;28;20561;-66
2021/11/02 10:59:23;;;;;;;4.17;1.40;;;15.90;92.90;;;;;;6250911;28;20786;-66
2021/11/02 11:02:30;;;;;;;1.33;1.07;;;16.20;92.60;;;;;;6227770;28;20475;-67
2021/11/02 11:05:33;;;;;;;1.33;1.23;;;16.80;91.60;;;;;;6227566;28;20479;-65
2021/11/02 11:08:38;;;;;;;1.40;1.30;;;17.10;90.20;;;;;;6227165;28;20798;-65
2021/11/02 11:11:46;;;;;;;2.00;1.70;;;17.60;90.00;;;;;;6235490;28;20830;-67
2021/11/02 11:14:55;;;;;;;1.87;1.70;;;18.00;88.00;;;;;;6251429;28;20485;-66
2021/11/02 11:18:05;;;;;;;1.60;1.50;;;17.80;86.80;;;;;;6251632;28;20443;-66
2021/11/02 11:21:10;;;;;;;1.53;1.40;;;17.80;83.80;;;;;;6251761;28;20424;-67
2021/11/02 11:24:17;;;;;;;1.20;1.07;;;18.10;84.30;;;;;;6251900;28;20482;-67
2021/11/02 11:27:21;;;;;;;2.00;1.03;;;18.40;81.30;;;;;;6226678;28;20468;-66
2021/11/02 11:30:30;;;;;;;1.90;1.27;;;18.60;80.00;;;;;;6241483;28;20462;-66
2021/11/02 11:33:35;;;;;;;2.23;1.80;;;18.80;80.00;;;;;;6250831;28;20521;-67
2021/11/02 11:36:49;;;;;;;3.00;2.20;;;19.40;78.60;;;;;;6251437;28;20255;-67
2021/11/02 11:40:00;;;;;;;2.10;1.90;;;20.40;74.40;;;;;;6250771;28;20236;-67
2021/11/02 11:43:06;;;;;;;1.97;1.50;;;21.50;72.60;;;;;;6250377;28;20232;-65
2021/11/02 11:46:12;;;;;;;2.50;1.50;;;25.20;63.10;;;;;;6250835;28;20240;-67
2021/11/02 11:49:25;;;;;;;6.13;2.30;;;27.60;48.20;;;;;;6250717;28;20323;-67
2021/11/02 11:52:28;;;;;;;3.10;1.83;;;27.10;46.70;;;;;;6250564;28;20239;-69
2021/11/02 11:55:34;;;;;;;1.80;1.70;;;27.00;46.70;;;;;;6251050;28;20552;-68
2021/11/02 11:58:47;;;;;;;2.60;2.17;;;27.90;44.90;;;;;;6229155;28;20243;-67
2021/11/02 12:01:58;;;;;;;2.30;1.87;;;31.80;39.80;;;;;;6231604;28;20704;-67
2021/11/02 12:05:16;;;;;;;2.50;1.77;;;35.10;33.10;;;;;;6225593;28;20232;-68
2021/11/02 12:08:30;;;;;;;3.28;1.83;;;36.70;28.90;;;;;;6226033;28;20228;-67
2021/11/02 12:11:35;;;;;;;3.25;2.20;;;38.00;27.40;;;;;;6225406;28;20676;-66
2021/11/02 12:14:44;;;;;;;3.45;1.77;;;39.60;25.60;;;;;;6225897;28;20225;-70
2021/11/02 12:17:51;;;;;;;2.58;1.88;;;40.30;24.20;;;;;;6225605;28;20239;-66
2021/11/02 12:20:57;;;;;;;1.70;1.60;;;40.60;22.70;;;;;;6225478;28;20287;-66
2021/11/02 12:24:02;;;;;;;2.33;1.63;;;40.60;23.20;;;;;;6225377;28;20548;-67
2021/11/02 12:27:14;;;;;;;2.35;1.63;;;41.20;22.50;;;;;;6225790;28;20522;-67
2021/11/02 12:30:20;;;;;;;1.83;1.60;;;41.00;22.10;;;;;;6249227;28;20242;-68
2021/11/02 12:33:25;;;;;;;1.85;1.50;;;40.90;22.30;;;;;;6250738;28;20235;-71
2021/11/02 12:36:29;;;;;;;2.50;1.70;;;40.50;22.20;;;;;;6250329;28;20228;-67
2021/11/02 12:39:32;;;;;;;1.73;1.33;;;40.00;22.40;;;;;;6249801;28;20248;-67
2021/11/02 12:42:38;;;;;;;1.50;1.40;;;40.70;22.40;;;;;;6249326;28;20237;-68
2021/11/02 12:45:42;;;;;;;1.60;1.50;;;40.90;22.00;;;;;;6249735;28;20262;-68
2021/11/02 12:48:47;;;;;;;1.85;1.67;;;40.70;21.80;;;;;;6234697;28;20231;-68
2021/11/02 12:51:57;;;;;;;2.17;1.40;;;40.20;21.90;;;;;;6233013;28;20234;-67
2021/11/02 12:55:07;;;;;;;1.58;1.25;;;39.70;22.10;;;;;;6231152;28;20243;-67
2021/11/02 12:58:21;;;;;;;1.20;1.00;;;39.30;22.20;;;;;;6237168;28;20575;-69
2021/11/02 13:01:35;;;;;;;1.20;1.08;;;37.80;23.00;;;;;;6233308;28;20707;-67
2021/11/02 13:04:42;;;;;;;1.95;0.82;;;36.80;24.10;;;;;;6249304;28;20540;-66
2021/11/02 13:08:03;;;;;;;1.92;1.20;;;37.20;24.10;;;;;;6227414;28;20235;-67
2021/11/02 13:11:09;;;;;;;2.08;1.33;;;36.80;24.30;;;;;;6225348;28;20248;-66
2021/11/02 13:14:16;;;;;;;1.10;0.80;;;35.80;24.70;;;;;;6225030;28;20232;-67
2021/11/02 13:17:25;;;;;;;6.35;0.95;;;36.30;24.50;;;;;;6229205;28;20235;-67
2021/11/02 13:20:31;;;;;;;2.53;0.90;;;36.10;24.60;;;;;;6247523;28;20231;-66
2021/11/02 13:23:45;;;;;;;1.90;1.23;;;34.80;25.40;;;;;;6247920;28;20231;-66
2021/11/02 13:26:50;;;;;;;1.48;1.25;;;34.10;25.90;;;;;;6247956;28;20235;-67
2021/11/02 13:29:53;;;;;;;2.53;1.60;;;32.70;26.80;;;;;;6247333;28;20246;-67
2021/11/02 13:33:02;;;;;;;1.53;1.20;;;29.90;29.70;;;;;;6242220;28;20227;-67
2021/11/02 13:36:06;;;;;;;2.67;1.20;;;26.70;34.50;;;;;;6267110;28;20214;-67
2021/11/02 13:39:12;;;;;;;1.43;1.13;;;25.20;37.10;;;;;;6274030;28;20374;-66
2021/11/02 13:42:16;;;;;;;2.13;1.30;;;23.80;39.70;;;;;;6273820;28;20247;-66
2021/11/02 13:45:23;;;;;;;1.60;1.00;;;22.10;43.20;;;;;;6273872;28;20535;-66
2021/11/02 13:48:30;;;;;;;0.90;0.70;;;20.40;46.50;;;;;;6272951;28;20271;-68
2021/11/02 13:51:34;;;;;;;1.33;1.23;;;19.20;48.80;;;;;;6265461;28;20692;-67
2021/11/02 13:54:39;;;;;;;2.50;1.10;;;17.90;51.30;;;;;;6272349;28;20239;-68
2021/11/02 13:57:42;;;;;;;1.40;0.97;;;17.30;54.80;;;;;;6276807;28;20477;-67
2021/11/02 14:00:46;;;;;;;4.40;1.27;;;16.60;57.50;;;;;;6277541;28;20485;-68
2021/11/02 14:03:54;;;;;;;3.40;1.03;;;16.60;59.50;;;;;;6276042;28;20480;-68
2021/11/02 14:07:04;;;;;;;1.10;1.00;;;16.60;61.30;;;;;;6275980;28;20810;-67
2021/11/02 14:10:10;;;;;;;1.83;0.70;;;16.60;63.30;;;;;;6276279;28;20469;-67
2021/11/02 14:13:14;;;;;;;1.53;1.37;;;16.40;63.80;;;;;;6275753;28;20477;-67
2021/11/02 14:16:29;;;;;;;1.30;1.07;;;16.20;64.90;;;;;;6277398;28;20466;-67
2021/11/02 14:19:43;;;;;;;1.20;0.70;;;15.90;67.40;;;;;;6274918;28;20984;-66
2021/11/02 14:22:49;;;;;;;1.50;1.03;;;15.70;68.70;;;;;;6277093;28;20470;-67
2021/11/02 14:25:53;;;;;;;1.43;1.20;;;15.60;70.00;;;;;;6277414;28;20477;-67
2021/11/02 14:28:58;;;;;;;1.03;1.03;;;15.50;71.50;;;;;;6277170;28;20497;-68
2021/11/02 14:32:01;;;;;;;1.57;1.47;;;15.40;72.20;;;;;;6277110;28;20485;-68
2021/11/02 14:35:06;;;;;;;1.93;1.20;;;15.30;74.20;;;;;;6268999;28;20470;-65
2021/11/02 14:38:10;;;;;;;1.87;1.00;;;15.00;75.20;;;;;;6252706;28;20471;-68
2021/11/02 14:41:32;;;;;;;1.80;1.60;;;14.90;76.90;;;;;;6269101;28;20750;-66
2021/11/02 14:44:50;;;;;;;0.80;0.80;;;14.80;78.30;;;;;;6262101;28;20971;-66
2021/11/02 14:47:53;;;;;;;1.10;1.00;;;14.70;79.40;;;;;;6251702;28;20450;-66
2021/11/02 14:50:58;;;;;;;1.73;1.40;;;14.50;80.60;;;;;;6264415;28;20489;-66
2021/11/02 14:54:21;;;;;;;2.17;1.33;;;14.30;83.60;;;;;;6273615;28;20585;-66
2021/11/02 14:57:55;;;;;;;1.90;1.57;;;14.10;86.00;;;;;;6252954;28;20591;-67
2021/11/02 15:00:58;;;;;;;1.87;1.20;;;13.80;88.70;;;;;;6268811;28;20478;-66
2021/11/02 15:04:04;;;;;;;2.50;1.27;;;13.70;90.10;;;;;;6275252;28;20474;-68
2021/11/02 15:07:08;;;;;;;2.17;1.70;;;13.40;91.20;;;;;;6273356;28;20466;-67
2021/11/02 15:10:13;;;;;;;1.23;1.13;;;13.30;92.10;;;;;;6275658;28;20500;-69
2021/11/02 15:13:23;;;;;;;1.60;1.37;;;13.30;92.60;;;;;;6277362;28;20492;-67
2021/11/02 15:16:27;;;;;;;1.67;1.30;;;13.30;93.00;;;;;;6276785;28;20482;-65
2021/11/02 15:19:33;;;;;;;2.43;1.57;;;13.30;93.40;;;;;;6277052;28;20474;-66
2021/11/02 15:22:37;;;;;;;1.67;1.57;;;13.30;93.70;;;;;;6276763;28;20843;-66
2021/11/02 15:25:45;;;;;;;1.97;1.30;;;13.30;94.30;;;;;;6271727;28;20482;-67
2021/11/02 15:28:51;;;;;;;1.67;1.57;;;13.30;94.80;;;;;;6260522;28;20497;-67
2021/11/02 15:31:56;;;;;;;1.80;1.30;;;13.30;95.50;;;;;;6265916;28;20501;-67
2021/11/02 15:35:02;;;;;;;1.70;1.60;;;13.20;96.00;;;;;;6266422;28;20521;-65
2021/11/02 15:38:06;;;;;;;3.90;1.80;;;13.20;96.20;;;;;;6250888;28;20478;-67
2021/11/02 15:41:27;;;;;;;4.10;1.60;;;13.20;96.70;;;;;;6250763;28;20475;-65
2021/11/02 15:44:32;;;;;;;4.27;1.93;;;13.10;97.30;;;;;;6249862;28;20468;-67
2021/11/02 15:47:40;;;;;;;9.93;7.53;;;13.00;97.60;;;;;;6273641;28;20500;-66
2021/11/02 15:50:45;;;;;;;6.67;5.10;;;13.00;98.10;;;;;;6274516;28;20490;-67
2021/11/02 15:53:48;;;;;;;7.77;5.13;;;13.00;98.10;;;;;;6273808;28;20480;-65
2021/11/02 15:56:52;;;;;;;5.47;3.70;;;12.90;98.10;;;;;;6274082;28;20989;-67
2021/11/02 16:00:08;;;;;;;3.47;3.17;;;12.90;98.50;;;;;;6270046;28;20549;-67
2021/11/02 16:03:12;;;;;;;4.20;3.50;;;12.80;98.70;;;;;;6249184;28;20451;-65
2021/11/02 16:06:17;;;;;;;6.03;3.90;;;12.80;98.90;;;;;;6249945;28;20463;-66
2021/11/02 16:09:20;;;;;;;7.03;2.90;;;12.70;99.10;;;;;;6250742;28;20475;-65
2021/11/02 16:12:31;;;;;;;7.77;6.33;;;12.70;99.40;;;;;;6250560;28;20471;-66
2021/11/02 16:15:38;;;;;;;5.27;4.20;;;12.60;99.60;;;;;;6259309;28;20478;-66
2021/11/02 16:18:42;;;;;;;9.87;4.07;;;12.50;99.70;;;;;;6261183;28;20943;-66
2021/11/02 16:21:47;;;;;;;6.30;4.90;;;12.50;99.90;;;;;;6273659;28;20481;-66
2021/11/02 16:25:07;;;;;;;6.67;5.37;;;12.40;99.90;;;;;;6250243;28;20807;-66
2021/11/02 16:28:20;;;;;;;6.50;4.50;;;12.30;99.90;;;;;;6249960;28;21004;-66
2021/11/02 16:31:26;;;;;;;13.47;3.40;;;12.20;99.90;;;;;;6260179;28;20973;-66
2021/11/02 16:34:30;;;;;;;4.77;3.73;;;12.10;99.90;;;;;;6274818;28;20542;-65
2021/11/02 16:37:41;;;;;;;4.27;2.80;;;12.00;99.90;;;;;;6274500;28;20474;-65
2021/11/02 16:40:46;;;;;;;4.17;3.77;;;12.00;99.90;;;;;;6274400;28;20811;-71
2021/11/02 16:43:51;;;;;;;5.23;3.10;;;11.90;99.90;;;;;;6274845;28;20469;-66
2021/11/02 16:47:06;;;;;;;6.37;5.13;;;11.80;99.90;;;;;;6272871;28;20478;-67
2021/11/02 16:50:12;;;;;;;5.03;4.57;;;11.70;99.90;;;;;;6250149;28;20471;-67
2021/11/02 16:53:18;;;;;;;4.40;4.00;;;11.70;99.90;;;;;;6266693;28;20585;-67
2021/11/02 16:56:25;;;;;;;4.03;3.23;;;11.60;99.90;;;;;;6273288;28;20482;-68
2021/11/02 16:59:50;;;;;;;6.20;4.10;;;11.50;99.90;;;;;;6273832;28;20478;-68
2021/11/02 17:03:06;;;;;;;6.30;3.90;;;11.40;99.90;;;;;;6249418;28;20467;-66
2021/11/02 17:06:18;;;;;;;5.00;4.50;;;11.40;99.90;;;;;;6249659;28;20907;-67
2021/11/02 17:09:24;;;;;;;7.93;4.57;;;11.20;99.90;;;;;;6250978;28;20475;-68
2021/11/02 17:12:28;;;;;;;6.40;5.03;;;11.20;99.90;;;;;;6249955;28;20466;-67
2021/11/02 17:15:34;;;;;;;4.90;4.50;;;11.10;99.90;;;;;;6249268;28;20532;-66
2021/11/02 17:18:46;;;;;;;6.20;4.90;;;11.10;99.90;;;;;;6249592;28;20475;-68
2021/11/02 17:21:53;;;;;;;7.53;4.83;;;11.10;99.90;;;;;;6253726;28;20466;-66
2021/11/02 17:24:56;;;;;;;5.40;4.90;;;11.00;99.90;;;;;;6274551;28;20473;-65
2021/11/02 17:28:00;;;;;;;4.93;4.53;;;10.90;99.90;;;;;;6273846;28;20474;-67
2021/11/02 17:31:05;;;;;;;7.20;4.87;;;10.90;99.90;;;;;;6278654;28;20958;-67
2021/11/02 17:34:22;;;;;;;4.73;4.33;;;10.90;99.90;;;;;;6279337;28;20473;-66
2021/11/02 17:37:27;;;;;;;5.27;4.77;;;10.80;99.90;;;;;;6278472;28;20784;-67
2021/11/02 17:40:32;;;;;;;21.50;5.73;;;10.80;99.90;;;;;;6279040;28;20490;-67
2021/11/02 17:43:37;;;;;;;6.70;5.17;;;10.70;99.90;;;;;;6278903;28;20485;-66
2021/11/02 17:46:41;;;;;;;5.77;5.27;;;10.70;99.90;;;;;;6274685;28;20485;-66
2021/11/02 17:49:46;;;;;;;9.47;8.50;;;10.60;99.90;;;;;;6253694;28;20513;-66
2021/11/02 17:52:50;;;;;;;6.87;6.27;;;10.60;99.90;;;;;;6257774;28;20947;-66
2021/11/02 17:55:55;;;;;;;6.83;6.13;;;10.50;99.90;;;;;;6253420;28;20821;-67
2021/11/02 17:59:00;;;;;;;7.17;6.47;;;10.50;99.90;;;;;;6253643;28;20478;-66
2021/11/02 18:02:05;;;;;;;8.50;6.80;;;10.40;99.90;;;;;;6274603;28;20470;-66
2021/11/02 18:05:12;;;;;;;9.07;5.67;;;10.30;99.90;;;;;;6278423;28;20478;-66
2021/11/02 18:08:16;;;;;;;7.83;6.47;;;10.30;99.90;;;;;;6273563;28;20481;-66
2021/11/02 18:11:20;;;;;;;8.17;7.30;;;10.20;99.90;;;;;;6278016;28;20478;-66
2021/11/02 18:14:23;;;;;;;8.33;7.30;;;10.10;99.90;;;;;;6278217;28;20480;-66
2021/11/02 18:17:28;;;;;;;5.73;5.20;;;10.00;99.90;;;;;;6277628;28;20482;-66
2021/11/02 18:20:33;;;;;;;5.50;5.00;;;10.00;99.90;;;;;;6277482;28;20936;-67
2021/11/02 18:23:40;;;;;;;5.63;5.13;;;9.90;99.90;;;;;;6276854;28;20474;-68
2021/11/02 18:26:44;;;;;;;5.40;5.00;;;9.90;99.90;;;;;;6276578;28;20489;-67
2021/11/02 18:29:48;;;;;;;5.77;5.17;;;9.90;99.90;;;;;;6253866;28;20486;-65
2021/11/02 18:32:51;;;;;;;6.63;5.80;;;9.90;99.90;;;;;;6250869;28;20475;-66
2021/11/02 18:35:56;;;;;;;6.77;6.23;;;9.80;99.90;;;;;;6266712;28;20470;-66
2021/11/02 18:39:00;;;;;;;10.13;6.40;;;9.80;99.90;;;;;;6276214;28;20469;-65
2021/11/02 18:42:04;;;;;;;7.60;5.33;;;9.80;99.90;;;;;;6276096;28;20452;-66
2021/11/02 18:45:09;;;;;;;7.53;6.30;;;9.70;99.90;;;;;;6276130;28;20479;-66
2021/11/02 18:48:14;;;;;;;9.60;7.10;;;9.70;99.90;;;;;;6276895;28;20453;-65
2021/11/02 18:51:19;;;;;;;7.77;6.40;;;9.60;99.90;;;;;;6275217;28;20486;-65
2021/11/02 18:54:22;;;;;;;6.37;5.70;;;9.60;99.90;;;;;;6252299;28;20561;-65
2021/11/02 18:57:26;;;;;;;7.67;6.87;;;9.50;99.90;;;;;;6251659;28;20466;-65
2021/11/02 19:00:29;;;;;;;17.53;6.40;;;9.50;99.90;;;;;;6251970;28;20825;-65
2021/11/02 19:03:42;;;;;;;6.67;6.07;;;9.50;99.90;;;;;;6252163;28;20475;-65
2021/11/02 19:06:47;;;;;;;7.23;6.00;;;9.40;99.90;;;;;;6252202;28;20470;-65
2021/11/02 19:09:51;;;;;;;5.97;5.27;;;9.40;99.90;;;;;;6251840;28;20798;-66
2021/11/02 19:12:54;;;;;;;7.50;6.80;;;9.50;99.90;;;;;;6252435;28;20483;-66
2021/11/02 19:15:57;;;;;;;7.23;6.40;;;9.40;99.90;;;;;;6252122;28;20471;-65
2021/11/02 19:19:01;;;;;;;8.17;7.40;;;9.40;99.90;;;;;;6252272;28;20471;-65
2021/11/02 19:22:06;;;;;;;8.13;6.60;;;9.30;99.90;;;;;;6252356;28;20551;-65
2021/11/02 19:25:10;;;;;;;7.40;6.70;;;9.20;99.90;;;;;;6251961;28;20965;-67
2021/11/02 19:28:13;;;;;;;6.23;5.63;;;9.20;99.90;;;;;;6253583;28;20539;-65
2021/11/02 19:31:21;;;;;;;6.60;6.00;;;9.20;99.90;;;;;;6251573;28;20570;-66
2021/11/02 19:34:25;;;;;;;5.80;5.20;;;9.10;99.90;;;;;;6251854;28;20554;-66
2021/11/02 19:37:29;;;;;;;6.33;4.93;;;9.10;99.90;;;;;;6251407;28;20959;-67
2021/11/02 19:40:33;;;;;;;6.00;5.50;;;9.00;99.90;;;;;;6251313;28;20478;-67
2021/11/02 19:43:40;;;;;;;6.73;5.73;;;9.10;99.90;;;;;;6253353;28;20557;-67
2021/11/02 19:46:43;;;;;;;6.10;5.50;;;9.10;99.90;;;;;;6275942;28;20492;-67
2021/11/02 19:49:47;;;;;;;8.80;6.60;;;9.10;99.90;;;;;;6273860;28;20478;-66
2021/11/02 19:52:54;;;;;;;8.77;6.20;;;9.00;99.90;;;;;;6269924;28;20803;-68
2021/11/02 19:55:58;;;;;;;6.57;5.97;;;9.00;99.90;;;;;;6270225;28;20506;-67
2021/11/02 19:59:02;;;;;;;7.50;5.30;;;9.00;99.90;;;;;;6275660;28;20486;-66
2021/11/02 20:02:06;;;;;;;6.20;5.27;;;9.00;99.90;;;;;;6253904;28;20479;-65
2021/11/02 20:05:15;;;;;;;4.83;4.53;;;9.00;99.90;;;;;;6251289;28;20608;-68
2021/11/02 20:08:27;;;;;;;7.33;6.17;;;8.90;99.90;;;;;;6250431;28;20472;-64
2021/11/02 20:11:34;;;;;;;7.00;6.33;;;8.90;99.90;;;;;;6250658;28;20486;-64
2021/11/02 20:14:41;;;;;;;6.10;5.47;;;8.90;99.90;;;;;;6250377;28;20486;-62
2021/11/02 20:17:47;;;;;;;6.93;6.23;;;8.90;99.90;;;;;;6243341;28;20483;-64
2021/11/02 20:20:51;;;;;;;8.30;7.10;;;8.80;99.90;;;;;;6250194;28;20487;-65
2021/11/02 20:23:57;;;;;;;7.93;6.63;;;8.80;99.90;;;;;;6250804;28;20513;-65
2021/11/02 20:27:03;;;;;;;8.40;6.63;;;8.70;99.90;;;;;;6250097;28;20511;-66
2021/11/02 20:30:08;;;;;;;7.57;6.60;;;8.70;99.90;;;;;;6270863;28;20478;-66
2021/11/02 20:33:11;;;;;;;8.10;7.30;;;8.70;99.90;;;;;;6275166;28;20478;-65
2021/11/02 20:36:19;;;;;;;8.30;6.93;;;8.70;99.90;;;;;;6275442;28;20449;-64
2021/11/02 20:39:25;;;;;;;12.57;7.60;;;8.70;99.90;;;;;;6275077;28;20477;-65